Archival Weather

Sulphur Springs Muni

Sulphur Springs, Texas (KSLR)

Report from: Thursday, September 21, 2023 9:12 PM CDT
Current time: Saturday, February 24, 2024 10:54 AM CST

Current weather – Weather history – Daily summaries
Weather forecast

Present weatherLight drizzle
Temperature23.0°C (73.4°F)
Dew point22.0°C (71.6°F)
Winds 10 kts (5.1 m/s, 11.5 mph) Northeast (50°)
Visibility10 mi. (16.1 km)
Clouds Scattered clouds 9,000 ft. (2,743 m)
Scattered clouds 12,000 ft. (3,658 m)
Altimeter30.02 in.Hg (1017 mB)
Relative humidity94 %
Density altitude1,173 ft. (358 m)
Remarks Fully automated report
Automated weather observing station with precipitation discriminator
Flight conditions Visual Meteorological Conditions
Raw dataKSLR 220212Z AUTO 05010KT 10SM -DZ SCT090 SCT120 23/22 A3002 RMK AO2
An error has occurred. This application may no longer respond until reloaded. Reload 🗙